Terminal Aerodrome Forecast
Issued by NWS Sioux Falls, SD

Home | Current Version | Previous Version | Text Only | Print | Product List | Glossary On
Versions: 1 2 3 4 5 6 7 8 9 10 11 12 13 14 15 16 17 18 19 20 21 22 23 24 25 26 27 28 29 30 31 32 33
000
FTUS43 KFSD 191128
TAFSUX
TAF
KSUX 191128Z 1912/2012 16005KT P6SM SCT015 OVC025
      TEMPO 1912/1914 5SM BR
     FM191700 16008KT P6SM BKN025
     FM200200 15007KT P6SM OVC015
     FM200600 14007KT P6SM SCT007 OVC015=

USA.gov is the U.S. government's official web portal to all federal, state and local government web resources and services.